Time;durP1;ratioP1;P1;durP2;ratioP2;P2;SDS_P1;SDS_P2;PMS_P1;PMS_P2;Temp;Humidity;BMP_temperature;BMP_pressure;BME280_temperature;BME280_humidity;BME280_pressure;Samples;Min_cycle;Max_cycle;Signal;HPM_P1;HPM_P2
2023/08/25 00:01:18;;;;;;;0.73;0.73;;;;;;;13.09;100.00;99391.97;7404598;19;20041;-83
2023/08/25 00:03:45;;;;;;;0.98;0.88;;;;;;;13.09;100.00;99389.19;7397748;19;20010;-85
2023/08/25 00:06:11;;;;;;;0.85;0.43;;;;;;;13.09;100.00;99386.38;7397966;19;20014;-81
2023/08/25 00:08:37;;;;;;;0.55;0.28;;;;;;;13.06;100.00;99384.59;7398498;19;20030;-82
2023/08/25 00:11:04;;;;;;;4.25;0.75;;;;;;;13.04;100.00;99380.75;7398392;19;20015;-82
2023/08/25 00:13:32;;;;;;;0.47;0.47;;;;;;;12.98;100.00;99372.34;7401911;19;20021;-83
2023/08/25 00:15:59;;;;;;;0.13;0.13;;;;;;;13.00;100.00;99380.97;7397997;19;20006;-82
2023/08/25 00:18:25;;;;;;;0.28;0.28;;;;;;;12.91;100.00;99370.03;7400299;19;20023;-82
2023/08/25 00:20:51;;;;;;;0.43;0.43;;;;;;;12.88;100.00;99371.81;7398190;19;20082;-82
2023/08/25 00:23:17;;;;;;;0.10;0.10;;;;;;;12.87;100.00;99367.47;7395685;19;20038;-81
2023/08/25 00:25:46;;;;;;;0.30;0.17;;;;;;;12.88;100.00;99382.22;7400340;19;20033;-82
2023/08/25 00:28:12;;;;;;;1.20;0.57;;;;;;;12.87;100.00;99378.66;7399531;19;20176;-81
2023/08/25 00:30:40;;;;;;;0.40;0.40;;;;;;;12.81;100.00;99372.28;7396326;19;20018;-87
2023/08/25 00:33:06;;;;;;;0.60;0.38;;;;;;;12.83;100.00;99369.00;7399180;19;20021;-82
2023/08/25 00:35:33;;;;;;;0.30;0.30;;;;;;;12.75;100.00;99373.53;7402414;19;20007;-85
2023/08/25 00:37:59;;;;;;;0.45;0.43;;;;;;;12.68;100.00;99376.81;7395171;19;20018;-87
2023/08/25 00:40:50;;;;;;;2.95;0.50;;;;;;;12.66;100.00;99368.94;7390937;19;20049;-84
2023/08/25 00:43:16;;;;;;;1.20;1.20;;;;;;;12.66;100.00;99384.94;7397334;19;20483;-81
2023/08/25 00:45:42;;;;;;;0.20;0.20;;;;;;;12.64;100.00;99376.28;7397266;19;20029;-82
2023/08/25 00:48:10;;;;;;;1.23;1.13;;;;;;;12.63;100.00;99380.31;7398726;19;20014;-83
2023/08/25 00:50:38;;;;;;;0.80;0.60;;;;;;;12.63;100.00;99385.91;7393728;19;20483;-83
2023/08/25 00:53:05;;;;;;;0.30;0.30;;;;;;;12.54;100.00;99386.88;7397531;19;20018;-82
2023/08/25 00:55:32;;;;;;;0.38;0.38;;;;;;;12.44;100.00;99382.78;7395650;19;20041;-79
2023/08/25 00:57:59;;;;;;;0.30;0.30;;;;;;;12.43;100.00;99392.41;7396843;19;20022;-83
2023/08/25 01:00:25;;;;;;;0.40;0.40;;;;;;;12.37;100.00;99379.69;7395573;19;20021;-81
2023/08/25 01:14:09;;;;;;;0.52;0.50;;;;;;;12.32;100.00;99372.81;7398861;19;20033;-84
2023/08/25 01:17:12;;;;;;;0.63;0.63;;;;;;;12.30;100.00;99369.75;7395317;19;20025;-88
2023/08/25 01:19:38;;;;;;;0.32;0.32;;;;;;;12.29;100.00;99367.47;7392687;19;20401;-84
2023/08/25 01:22:11;;;;;;;0.52;0.52;;;;;;;12.28;100.00;99361.09;7398799;19;20018;-88
2023/08/25 01:24:41;;;;;;;0.30;0.30;;;;;;;12.28;100.00;99363.16;7398059;19;20387;-91
2023/08/25 01:27:10;;;;;;;0.40;0.40;;;;;;;12.28;100.00;99354.78;7397083;19;20078;-91
2023/08/25 01:29:41;;;;;;;0.50;0.50;;;;;;;12.33;100.00;99351.22;7399890;19;20015;-93
2023/08/25 01:32:07;;;;;;;0.88;0.88;;;;;;;12.34;100.00;99347.97;7401178;19;20022;-85
2023/08/25 01:34:33;;;;;;;0.52;0.52;;;;;;;12.36;100.00;99348.22;7394024;19;20045;-52
2023/08/25 01:37:23;;;;;;;0.20;0.20;;;;;;;12.38;100.00;99339.34;7396398;19;20018;-52
2023/08/25 01:39:57;;;;;;;0.35;0.30;;;;;;;12.40;100.00;99334.00;7394510;19;20368;-52
2023/08/25 01:42:25;;;;;;;0.50;0.50;;;;;;;12.38;100.00;99339.34;7394883;19;20017;-52
2023/08/25 01:44:53;;;;;;;0.25;0.25;;;;;;;12.38;100.00;99342.13;7394621;19;20014;-53
2023/08/25 01:47:24;;;;;;;0.63;0.63;;;;;;;12.33;100.00;99340.06;7397257;19;20474;-52
2023/08/25 01:49:51;;;;;;;;;;;;;;;12.28;100.00;99352.00;7398179;19;20010;-52
2023/08/25 01:52:20;;;;;;;0.40;0.40;;;;;;;12.27;100.00;99339.28;7398102;19;19929;-53
2023/08/25 01:54:49;;;;;;;0.22;0.22;;;;;;;12.26;100.00;99344.09;7397691;19;20015;-52
2023/08/25 01:57:15;;;;;;;0.40;0.40;;;;;;;12.21;100.00;99342.06;7399873;19;20014;-52
2023/08/25 01:59:42;;;;;;;0.38;0.38;;;;;;;12.21;100.00;99342.06;7394484;19;20014;-52
2023/08/25 02:02:08;;;;;;;0.47;0.47;;;;;;;12.15;100.00;99347.59;7395219;19;20055;-52
2023/08/25 02:04:34;;;;;;;0.40;0.40;;;;;;;12.11;100.00;99344.28;7394899;19;20020;-52
2023/08/25 02:07:01;;;;;;;0.22;0.22;;;;;;;12.18;100.00;99335.44;7398504;19;20011;-52
2023/08/25 02:09:27;;;;;;;0.65;0.50;;;;;;;12.15;100.00;99339.22;7401266;19;20014;-52
2023/08/25 02:11:54;;;;;;;0.35;0.35;;;;;;;12.11;100.00;99341.47;7395023;19;20396;-52
2023/08/25 02:14:20;;;;;;;2.10;1.20;;;;;;;12.09;100.00;99332.84;7398076;19;20365;-53
2023/08/25 02:16:46;;;;;;;0.10;0.10;;;;;;;12.15;100.00;99333.63;7395499;19;20022;-52
2023/08/25 02:19:12;;;;;;;3.20;0.50;;;;;;;12.15;100.00;99336.44;7399465;19;20011;-53
2023/08/25 02:21:38;;;;;;;0.52;0.52;;;;;;;12.14;100.00;99328.56;7394563;19;20014;-52
2023/08/25 02:24:04;;;;;;;0.22;0.22;;;;;;;12.11;100.00;99324.72;7394155;19;20014;-51
2023/08/25 02:26:31;;;;;;;0.50;0.50;;;;;;;12.10;100.00;99323.22;7394411;19;20011;-52
2023/08/25 02:28:57;;;;;;;0.50;0.50;;;;;;;12.14;100.00;99318.16;7398914;19;20025;-51
2023/08/25 02:31:25;;;;;;;0.77;0.75;;;;;;;12.01;100.00;99317.06;7396958;19;20015;-52
2023/08/25 02:33:51;;;;;;;0.47;0.17;;;;;;;12.15;100.00;99319.66;7396216;19;20404;-52
2023/08/25 02:36:17;;;;;;;0.22;0.22;;;;;;;12.17;100.00;99316.41;7395855;19;20006;-53
2023/08/25 02:38:43;;;;;;;0.50;0.50;;;;;;;12.17;100.00;99317.16;7395753;19;20003;-52
2023/08/25 02:41:12;;;;;;;0.98;0.63;;;;;;;12.13;100.00;99327.78;7395129;19;20489;-52
2023/08/25 02:43:38;;;;;;;0.20;0.20;;;;;;;12.10;100.00;99323.22;7398697;19;20022;-52
2023/08/25 02:46:05;;;;;;;0.75;0.75;;;;;;;12.00;100.00;99319.09;7393122;19;20025;-53
2023/08/25 02:48:31;;;;;;;1.23;0.63;;;;;;;12.01;100.00;99317.06;7393816;19;20330;-52
2023/08/25 02:50:57;;;;;;;0.35;0.35;;;;;;;12.05;100.00;99321.16;7395328;19;20011;-53
2023/08/25 02:53:23;;;;;;;0.57;0.57;;;;;;;11.99;100.00;99311.97;7395081;19;20014;-52
2023/08/25 02:55:49;;;;;;;1.30;0.63;;;;;;;11.97;100.00;99308.94;7396518;19;20010;-53
2023/08/25 02:58:16;;;;;;;0.50;0.50;;;;;;;11.99;100.00;99311.97;7393246;19;20010;-53
2023/08/25 03:00:42;;;;;;;0.28;0.28;;;;;;;12.02;100.00;99301.81;7396209;19;20007;-52
2023/08/25 03:03:08;;;;;;;0.43;0.43;;;;;;;12.05;100.00;99307.19;7397466;19;20351;-53
2023/08/25 03:05:34;;;;;;;0.40;0.40;;;;;;;12.07;100.00;99301.88;7392018;19;20470;-52
2023/08/25 03:08:00;;;;;;;0.30;0.30;;;;;;;12.03;100.00;99300.56;7398092;19;20395;-52
2023/08/25 03:10:26;;;;;;;1.50;0.38;;;;;;;11.93;100.00;99305.59;7392640;19;20014;-52
2023/08/25 03:12:53;;;;;;;0.20;0.20;;;;;;;11.98;100.00;99304.09;7394492;19;20014;-52
2023/08/25 03:15:19;;;;;;;0.45;0.45;;;;;;;12.00;100.00;99299.53;7397718;19;20034;-52
2023/08/25 03:17:45;;;;;;;0.52;0.52;;;;;;;11.97;100.00;99308.16;7392423;19;20021;-52
2023/08/25 03:20:11;;;;;;;0.63;0.55;;;;;;;11.99;100.00;99303.63;7396658;19;20482;-53
2023/08/25 03:22:38;;;;;;;4.13;0.70;;;;;;;11.97;100.00;99297.78;7394279;19;20038;-52
2023/08/25 03:25:04;;;;;;;0.35;0.22;;;;;;;11.97;100.00;99300.56;7390195;19;20074;-51
2023/08/25 03:27:34;;;;;;;0.30;0.30;;;;;;;12.05;100.00;99286.88;7392965;19;20030;-52
2023/08/25 03:30:01;;;;;;;0.22;0.22;;;;;;;12.06;100.00;99289.16;7394958;19;20048;-52
2023/08/25 03:32:28;;;;;;;0.80;0.75;;;;;;;12.04;100.00;99280.53;7395607;19;20537;-52
2023/08/25 03:34:55;;;;;;;0.30;0.30;;;;;;;12.02;100.00;99288.66;7393002;19;20011;-52
2023/08/25 03:37:21;;;;;;;0.52;0.52;;;;;;;12.02;100.00;99288.66;7391200;19;20331;-52
2023/08/25 03:39:47;;;;;;;0.30;0.30;;;;;;;12.01;100.00;99283.56;7392461;19;20015;-52
2023/08/25 03:42:13;;;;;;;0.30;0.30;;;;;;;12.02;100.00;99277.47;7396459;19;20014;-53
2023/08/25 03:44:39;;;;;;;0.35;0.35;;;;;;;11.99;100.00;99281.28;7397307;19;20015;-52
2023/08/25 03:47:05;;;;;;;0.85;0.85;;;;;;;11.96;100.00;99276.69;7391573;19;20014;-53
2023/08/25 03:49:33;;;;;;;0.30;0.30;;;;;;;11.92;100.00;99276.16;7393740;19;20021;-53
2023/08/25 03:51:59;;;;;;;0.55;0.55;;;;;;;11.86;100.00;99269.78;7391716;19;20029;-52
2023/08/25 03:54:27;;;;;;;0.45;0.45;;;;;;;11.88;100.00;99266.50;7393249;19;20026;-53
2023/08/25 03:56:53;;;;;;;0.30;0.30;;;;;;;11.47;100.00;99265.19;7397943;19;20007;-53
2023/08/25 03:59:20;;;;;;;0.10;0.10;;;;;;;11.70;100.00;99270.44;7392643;19;20006;-53
2023/08/25 04:01:47;;;;;;;0.68;0.40;;;;;;;11.68;100.00;99253.44;7393975;19;20034;-53
2023/08/25 04:04:13;;;;;;;0.95;0.38;;;;;;;11.66;100.00;99261.53;7395094;19;20050;-53
2023/08/25 04:06:41;;;;;;;0.35;0.35;;;;;;;11.51;100.00;99255.34;7391694;19;20489;-52
2023/08/25 04:09:09;;;;;;;0.73;0.73;;;;;;;9.85;100.00;99267.50;7396011;19;20499;-52
2023/08/25 04:11:36;;;;;;;0.60;0.60;;;;;;;11.30;100.00;99254.66;7393101;19;20044;-52
2023/08/25 04:14:02;;;;;;;0.85;0.30;;;;;;;11.61;100.00;99256.66;7393660;19;20019;-53
2023/08/25 04:16:29;;;;;;;0.98;0.45;;;;;;;11.68;100.00;99253.44;7391221;19;20070;-53
2023/08/25 04:18:55;;;;;;;0.25;0.25;;;;;;;11.75;100.00;99253.00;7391775;19;20473;-53
2023/08/25 04:21:21;;;;;;;0.68;0.40;;;;;;;11.75;100.00;99252.22;7390346;19;20021;-53
2023/08/25 04:23:47;;;;;;;1.38;0.75;;;;;;;11.78;100.00;99251.97;7393662;19;20468;-52
2023/08/25 04:26:13;;;;;;;0.20;0.20;;;;;;;11.82;100.00;99246.94;7389537;19;20026;-52
2023/08/25 04:28:39;;;;;;;0.60;0.60;;;;;;;11.84;100.00;99261.16;7391109;19;20018;-52
2023/08/25 04:31:05;;;;;;;1.88;0.68;;;;;;;11.81;100.00;99256.56;7395759;19;20030;-52
2023/08/25 04:33:36;;;;;;;0.30;0.30;;;;;;;11.80;100.00;99252.25;7390781;19;20027;-53
2023/08/25 04:36:03;;;;;;;0.43;0.43;;;;;;;11.80;100.00;99252.25;7390442;19;20010;-53
2023/08/25 04:38:29;;;;;;;0.20;0.20;;;;;;;11.77;100.00;99253.25;7390801;19;20014;-52
2023/08/25 04:40:56;;;;;;;0.43;0.43;;;;;;;11.77;100.00;99256.03;7397854;19;20014;-52
2023/08/25 04:43:23;;;;;;;0.40;0.40;;;;;;;11.77;100.00;99261.63;7400436;19;20018;-53
2023/08/25 04:45:49;;;;;;;0.40;0.40;;;;;;;11.82;100.00;99248.97;7395998;19;20458;-53
2023/08/25 04:48:15;;;;;;;0.30;0.30;;;;;;;11.82;100.00;99241.38;7398406;19;20018;-53
2023/08/25 04:50:41;;;;;;;0.40;0.40;;;;;;;11.79;100.00;99242.34;7401473;19;20014;-53
2023/08/25 04:53:07;;;;;;;0.38;0.38;;;;;;;11.82;100.00;99251.75;7401087;19;20037;-53
2023/08/25 04:55:34;;;;;;;0.40;0.40;;;;;;;11.80;100.00;99232.72;7397823;19;20078;-53
2023/08/25 04:58:00;;;;;;;1.63;1.38;;;;;;;11.84;100.00;99249.22;7397335;19;20079;-53
2023/08/25 05:00:29;;;;;;;0.30;0.30;;;;;;;11.87;100.00;99242.63;7397466;19;20014;-53
2023/08/25 05:02:55;;;;;;;1.52;0.70;;;;;;;11.84;100.00;99238.84;7400435;19;20047;-53
2023/08/25 05:05:22;;;;;;;0.55;0.55;;;;;;;11.86;100.00;99244.69;7399239;19;20011;-53
2023/08/25 05:07:51;;;;;;;0.70;0.70;;;;;;;11.85;100.00;99239.59;7401457;19;20002;-52
2023/08/25 05:10:17;;;;;;;0.28;0.28;;;;;;;11.84;100.00;99238.06;7396303;19;20459;-53
2023/08/25 05:12:44;;;;;;;0.40;0.40;;;;;;;11.86;100.00;99239.09;7399580;19;20011;-52
2023/08/25 05:15:10;;;;;;;0.40;0.40;;;;;;;11.88;100.00;99233.78;7399767;19;20010;-52
2023/08/25 05:17:37;;;;;;;0.52;0.52;;;;;;;11.92;100.00;99234.31;7397904;19;20019;-52
2023/08/25 05:20:05;;;;;;;0.57;0.57;;;;;;;11.97;100.00;99236.38;7398287;19;20011;-53
2023/08/25 05:22:32;;;;;;;0.52;0.52;;;;;;;11.98;100.00;99237.88;7399234;19;20458;-53
2023/08/25 05:24:58;;;;;;;0.60;0.50;;;;;;;12.02;100.00;99244.00;7395428;19;20022;-52
2023/08/25 05:27:24;;;;;;;0.50;0.50;;;;;;;12.05;100.00;99240.22;7398114;19;20006;-51
2023/08/25 05:29:52;;;;;;;0.30;0.30;;;;;;;12.08;100.00;99241.25;7398898;19;20558;-52
2023/08/25 05:32:20;;;;;;;0.77;0.73;;;;;;;12.14;100.00;99250.41;7399262;19;20032;-52
2023/08/25 05:35:05;;;;;;;0.43;0.43;;;;;;;12.24;100.00;99248.13;7402513;19;20015;-52
2023/08/25 05:37:34;;;;;;;0.77;0.77;;;;;;;12.30;100.00;99243.38;7397081;19;20014;-52
2023/08/25 05:40:00;;;;;;;0.30;0.30;;;;;;;12.35;100.00;99243.38;7400126;19;20015;-52
2023/08/25 05:42:31;;;;;;;0.60;0.60;;;;;;;12.41;100.00;99241.34;7398487;19;20019;-52
2023/08/25 05:44:58;;;;;;;2.08;1.13;;;;;;;12.45;100.00;99235.53;7399737;19;20467;-52
2023/08/25 05:47:25;;;;;;;0.60;0.60;;;;;;;12.49;100.00;99241.66;7395437;19;20371;-52
2023/08/25 05:49:51;;;;;;;0.43;0.43;;;;;;;12.55;100.00;99242.41;7395740;19;20010;-52
2023/08/25 05:52:17;;;;;;;0.68;0.32;;;;;;;12.61;100.00;99248.78;7394735;19;20021;-52
2023/08/25 05:54:43;;;;;;;0.50;0.50;;;;;;;12.63;100.00;99243.44;7397862;19;20018;-52
2023/08/25 05:57:09;;;;;;;1.38;0.63;;;;;;;12.69;100.00;99238.66;7396210;19;20045;-53
2023/08/25 05:59:35;;;;;;;0.20;0.20;;;;;;;12.79;100.00;99242.72;7397359;19;20711;-52
2023/08/25 06:02:01;;;;;;;0.40;0.40;;;;;;;12.90;100.00;99237.94;7399861;19;20007;-52
2023/08/25 06:04:27;;;;;;;0.45;0.45;;;;;;;13.09;100.00;99245.84;7399500;19;20011;-52
2023/08/25 06:06:53;;;;;;;0.40;0.38;;;;;;;13.20;100.00;99243.81;7396867;19;20033;-51
2023/08/25 06:09:21;;;;;;;6.38;0.93;;;;;;;13.33;100.00;99235.69;7398302;19;20458;-52
2023/08/25 06:11:47;;;;;;;2.25;0.60;;;;;;;13.43;100.00;99234.13;7399296;19;20029;-52
2023/08/25 06:14:13;;;;;;;0.30;0.30;;;;;;;13.53;100.00;99229.81;7397303;19;20014;-52
2023/08/25 06:16:41;;;;;;;5.15;0.88;;;;;;;13.68;100.00;99233.09;7399316;19;20019;-52
2023/08/25 06:19:10;;;;;;;0.85;0.52;;;;;;;13.82;100.00;99231.25;7393850;19;20010;-52
2023/08/25 06:21:36;;;;;;;0.77;0.77;;;;;;;13.84;100.00;99228.72;7396280;19;20059;-53
2023/08/25 06:24:03;;;;;;;0.30;0.30;;;;;;;13.93;100.00;99230.47;7396279;19;20017;-52
2023/08/25 06:26:29;;;;;;;1.58;0.73;;;;;;;14.06;100.00;99234.25;7391616;19;20024;-51
2023/08/25 06:28:56;;;;;;;2.05;0.80;;;;;;;14.17;100.00;99233.44;7396968;19;20007;-51
2023/08/25 06:31:22;;;;;;;1.10;1.00;;;;;;;14.32;100.00;99222.72;7395604;19;20109;-52
2023/08/25 06:33:48;;;;;;;0.30;0.30;;;;;;;14.41;100.00;99219.63;7396367;19;20014;-52
2023/08/25 06:36:14;;;;;;;0.10;0.10;;;;;;;14.48;100.00;99219.06;7399084;19;20031;-52
2023/08/25 06:38:40;;;;;;;1.00;0.50;;;;;;;14.60;100.00;99214.91;7395817;19;20074;-52
2023/08/25 06:41:07;;;;;;;3.08;0.93;;;;;;;14.68;100.00;99218.72;7395289;19;20504;-52
2023/08/25 06:43:34;;;;;;;0.40;0.32;;;;;;;14.48;100.00;99221.88;7395973;19;20074;-52
2023/08/25 06:46:00;;;;;;;1.60;1.17;;;;;;;14.63;100.00;99225.09;7397375;19;20070;-52
2023/08/25 06:48:26;;;;;;;1.27;0.60;;;;;;;14.65;100.00;99230.94;7395831;19;20018;-52
2023/08/25 06:50:52;;;;;;;3.70;0.57;;;;;;;14.80;100.00;99234.16;7395288;19;20022;-52
2023/08/25 06:53:19;;;;;;;0.30;0.30;;;;;;;14.89;100.00;99225.44;7394744;19;20014;-52
2023/08/25 06:55:45;;;;;;;0.55;0.50;;;;;;;14.94;100.00;99227.44;7398726;19;20035;-52
2023/08/25 06:58:11;;;;;;;0.75;0.35;;;;;;;15.05;100.00;99232.97;7395295;19;20031;-52
2023/08/25 07:00:37;;;;;;;0.82;0.50;;;;;;;15.35;100.00;99235.81;7394714;19;20020;-53
2023/08/25 07:03:04;;;;;;;0.50;0.40;;;;;;;15.47;100.00;99228.81;7392695;19;20027;-53
2023/08/25 07:05:30;;;;;;;0.20;0.20;;;;;;;15.61;100.00;99243.75;7396640;19;20517;-52
2023/08/25 07:07:56;;;;;;;0.45;0.45;;;;;;;15.78;100.00;99244.34;7398534;19;20006;-52
2023/08/25 07:10:22;;;;;;;0.95;0.20;;;;;;;15.96;100.00;99245.69;7394704;19;20380;-53
2023/08/25 07:12:48;;;;;;;0.22;0.22;;;;;;;16.02;100.00;99244.34;7394720;19;20010;-52
2023/08/25 07:15:14;;;;;;;0.30;0.30;;;;;;;16.13;100.00;99241.41;7396709;19;20015;-53
2023/08/25 07:17:41;;;;;;;0.63;0.43;;;;;;;16.28;100.00;99238.94;7393079;19;20070;-52
2023/08/25 07:20:08;;;;;;;3.50;0.90;;;;;;;16.36;100.00;99239.06;7392936;19;20358;-53
2023/08/25 07:22:34;;;;;;;0.85;0.85;;;;;;;16.51;100.00;99243.00;7394279;19;20082;-53
2023/08/25 07:25:01;;;;;;;2.35;0.73;;;;;;;16.63;100.00;99240.81;7395553;19;20017;-52
2023/08/25 07:27:27;;;;;;;0.20;0.20;;;;;;;16.73;100.00;99241.16;7390705;19;20010;-52
2023/08/25 07:29:53;;;;;;;4.80;0.57;;;;;;;16.83;100.00;99242.31;7393140;19;20011;-52
2023/08/25 07:32:20;;;;;;;0.98;0.80;;;;;;;16.84;100.00;99238.19;7389454;19;20017;-53
2023/08/25 07:34:47;;;;;;;3.40;1.13;;;;;;;16.89;100.00;99238.09;7390935;19;20015;-52
2023/08/25 07:37:13;;;;;;;0.20;0.20;;;;;;;17.00;100.00;99228.75;7388581;19;20052;-53
2023/08/25 07:39:40;;;;;;;1.55;0.43;;;;;;;17.10;100.00;99227.81;7390081;19;20070;-52
2023/08/25 07:42:07;;;;;;;0.75;0.35;;;;;;;17.26;100.00;99223.22;7390644;19;20015;-53
2023/08/25 07:44:35;;;;;;;5.35;1.60;;;;;;;17.40;100.00;99222.72;7394900;19;20490;-53
2023/08/25 07:47:01;;;;;;;0.82;0.80;;;;;;;17.61;100.00;99242.59;7391827;19;20334;-53
2023/08/25 07:49:27;;;;;;;2.78;0.60;;;;;;;17.77;100.00;99221.84;7392688;19;20021;-53
2023/08/25 07:51:53;;;;;;;1.17;0.43;;;;;;;17.89;100.00;99223.13;7391306;19;20062;-53
2023/08/25 07:54:19;;;;;;;0.45;0.38;;;;;;;17.93;100.00;99217.94;7394423;19;20011;-53
2023/08/25 07:56:46;;;;;;;3.15;0.95;;;;;;;17.96;100.00;99211.22;7392373;19;20019;-53
2023/08/25 07:59:12;;;;;;;6.72;0.40;;;;;;;17.93;100.00;99206.66;7391925;19;20024;-53
2023/08/25 08:01:38;;;;;;;0.38;0.25;;;;;;;17.99;100.00;99198.88;7392523;19;20034;-53
2023/08/25 08:04:07;;;;;;;0.60;0.10;;;;;;;18.02;100.00;99197.00;7396523;19;20349;-53
2023/08/25 08:06:33;;;;;;;1.42;0.57;;;;;;;17.99;100.00;99198.09;7389047;19;20466;-53
2023/08/25 08:09:00;;;;;;;0.63;0.30;;;;;;;18.01;100.00;99196.28;7391670;19;20006;-53
2023/08/25 08:11:26;;;;;;;0.75;0.50;;;;;;;18.07;100.00;99193.31;7390663;19;20090;-53
2023/08/25 08:13:52;;;;;;;4.10;1.42;;;;;;;18.11;100.00;99191.69;7392913;19;20018;-53
2023/08/25 08:16:18;;;;;;;1.58;0.43;;;;;;;18.24;100.00;99198.63;7402601;19;20095;-53
2023/08/25 08:18:44;;;;;;;0.40;0.28;;;;;;;18.32;100.00;99197.41;7399963;19;20374;-53
2023/08/25 08:21:11;;;;;;;0.90;0.25;;;;;;;18.37;100.00;99193.72;7398898;19;20014;-53
2023/08/25 08:23:37;;;;;;;0.85;0.40;;;;;;;18.48;100.00;99187.88;7399391;19;20011;-53
2023/08/25 08:26:03;;;;;;;1.00;0.30;;;;;;;18.59;100.00;99192.50;7398821;19;20070;-53
2023/08/25 08:28:29;;;;;;;0.75;0.50;;;;;;;18.62;100.00;99192.19;7401061;19;20388;-53
2023/08/25 08:30:58;;;;;;;0.50;0.20;;;;;;;18.17;100.00;99189.53;7399473;19;20047;-53
2023/08/25 08:33:25;;;;;;;2.05;0.80;;;;;;;18.40;100.00;99187.00;7398930;19;20018;-53
2023/08/25 08:35:51;;;;;;;0.70;0.28;;;;;;;18.44;100.00;99189.47;7401014;19;20074;-53
2023/08/25 08:38:17;;;;;;;0.70;0.28;;;;;;;18.42;100.00;99197.72;7399274;19;20010;-53
2023/08/25 08:40:44;;;;;;;0.22;0.10;;;;;;;18.38;100.00;99200.13;7399086;19;20070;-53
2023/08/25 08:43:14;;;;;;;2.65;0.40;;;;;;;18.34;100.00;99203.28;7398412;19;20018;-53
2023/08/25 08:45:42;;;;;;;1.17;0.68;;;;;;;18.31;100.00;99200.78;7401105;19;20010;-53
2023/08/25 08:48:09;;;;;;;2.00;0.40;;;;;;;18.35;100.00;99201.19;7399172;19;20062;-53
2023/08/25 08:50:35;;;;;;;0.15;0.13;;;;;;;18.44;100.00;99203.56;7399324;19;20031;-53
2023/08/25 08:53:04;;;;;;;0.40;0.20;;;;;;;18.47;100.00;99208.16;7397287;19;20022;-54
2023/08/25 08:55:31;;;;;;;1.23;0.82;;;;;;;18.49;100.00;99200.69;7402349;19;20474;-54
2023/08/25 08:57:57;;;;;;;0.30;0.30;;;;;;;18.54;100.00;99193.38;7398675;19;20031;-53
2023/08/25 09:00:24;;;;;;;0.52;0.30;;;;;;;18.75;100.00;99194.19;7401747;19;20395;-54
2023/08/25 09:02:53;;;;;;;2.35;0.60;;;;;;;18.98;100.00;99192.34;7402601;19;20062;-53
2023/08/25 09:05:21;;;;;;;2.33;0.38;;;;;;;19.16;100.00;99188.59;7401210;19;20037;-54
2023/08/25 09:07:54;;;;;;;3.03;0.20;;;;;;;19.46;100.00;99188.88;7398469;19;20011;-53
2023/08/25 09:10:24;;;;;;;0.40;0.40;;;;;;;19.58;100.00;99183.66;7398535;19;20033;-54
2023/08/25 09:12:50;;;;;;;2.55;0.10;;;;;;;19.66;100.00;99178.84;7398222;19;20026;-54
2023/08/25 09:15:31;;;;;;;0.20;0.20;;;;;;;19.84;100.00;99189.13;7400823;19;20011;-54
2023/08/25 09:18:07;;;;;;;0.63;0.35;;;;;;;20.01;100.00;99191.50;7396002;19;20006;-53
2023/08/25 09:20:39;;;;;;;0.50;0.43;;;;;;;20.13;100.00;99193.44;7398527;19;20010;-54
2023/08/25 09:23:06;;;;;;;0.10;0.10;;;;;;;20.19;100.00;99184.78;7398268;19;20010;-54
2023/08/25 09:25:33;;;;;;;0.40;0.40;;;;;;;20.32;100.00;99193.94;7398481;19;20371;-53
2023/08/25 09:28:02;;;;;;;0.40;0.25;;;;;;;20.38;100.00;99185.28;7396234;19;20467;-53
2023/08/25 09:30:43;;;;;;;0.47;0.40;;;;;;;20.46;100.00;99194.56;7400860;19;20362;-54
2023/08/25 09:33:14;;;;;;;0.80;0.20;;;;;;;20.42;100.00;99191.34;7396723;19;20038;-54
2023/08/25 09:35:41;;;;;;;0.20;0.15;;;;;;;20.38;100.00;99191.69;7398857;19;20550;-54
2023/08/25 09:38:20;;;;;;;1.10;0.52;;;;;;;20.42;100.00;99185.69;7395782;19;20014;-52
2023/08/25 09:40:46;;;;;;;0.13;0.03;;;;;;;20.45;100.00;99190.22;7399139;19;20018;-54
2023/08/25 09:43:12;;;;;;;0.52;0.20;;;;;;;20.53;100.00;99185.34;7395189;19;20070;-54
2023/08/25 09:45:40;;;;;;;0.47;0.30;;;;;;;20.70;100.00;99193.34;7395671;19;20011;-54
2023/08/25 09:48:12;;;;;;;0.40;0.40;;;;;;;20.84;100.00;99186.94;7394502;19;20509;-52
2023/08/25 09:50:43;;;;;;;1.17;0.40;;;;;;;20.99;100.00;99189.81;7398480;19;20122;-52
2023/08/25 09:53:12;;;;;;;1.30;0.38;;;;;;;21.13;100.00;99185.53;7394732;19;20423;-53
2023/08/25 09:55:39;;;;;;;0.30;0.20;;;;;;;21.21;100.00;99187.59;7397415;19;20013;-53
2023/08/25 09:58:08;;;;;;;0.93;0.17;;;;;;;20.84;100.00;99191.84;7394262;19;20011;-54
2023/08/25 10:00:36;;;;;;;0.30;0.10;;;;;;;21.22;100.00;99183.44;7395496;19;20041;-54
2023/08/25 10:03:10;;;;;;;0.98;0.45;;;;;;;20.85;100.00;99188.47;7396534;19;20022;-54
2023/08/25 10:05:41;;;;;;;0.10;0.10;;;;;;;21.20;100.00;99186.09;7396582;19;20014;-53
2023/08/25 10:08:07;;;;;;;1.30;0.73;;;;;;;21.32;100.00;99187.22;7395106;19;20073;-53
2023/08/25 10:10:38;;;;;;;1.30;0.30;;;;;;;21.37;100.00;99192.72;7394643;19;20021;-53
2023/08/25 10:13:05;;;;;;;0.30;0.10;;;;;;;21.47;100.00;99190.06;7393955;19;20047;-53
2023/08/25 10:15:33;;;;;;;0.82;0.35;;;;;;;21.59;100.00;99194.03;7397696;19;20553;-53
2023/08/25 10:18:07;;;;;;;0.10;0.10;;;;;;;21.60;100.00;99182.13;7394535;19;20019;-53
2023/08/25 10:20:37;;;;;;;0.10;0.05;;;;;;;21.61;100.00;99183.63;7394545;19;20471;-53
2023/08/25 10:23:04;;;;;;;0.30;0.20;;;;;;;21.62;100.00;99178.72;7395466;19;20502;-53
2023/08/25 10:25:31;;;;;;;0.00;0.00;;;;;;;21.73;100.00;99172.66;7396798;19;20010;-53
2023/08/25 10:28:01;;;;;;;0.13;0.13;;;;;;;21.87;100.00;99171.88;7393478;19;20066;-53
2023/08/25 10:30:28;;;;;;;0.95;0.22;;;;;;;22.06;100.00;99176.38;7397968;19;20035;-53
2023/08/25 10:35:47;;;;;;;0.10;0.10;;;;;;;22.08;100.00;99168.81;7432280;19;20342;-52
2023/08/25 10:38:20;;;;;;;0.20;0.20;;;;;;;22.09;100.00;99164.66;7424874;19;20039;-52
2023/08/25 10:40:53;;;;;;;0.10;0.10;;;;;;;22.12;100.00;99166.34;7430431;19;20006;-52
2023/08/25 10:43:24;;;;;;;0.10;0.00;;;;;;;22.20;100.00;99164.22;7425680;19;20020;-52
2023/08/25 10:45:51;;;;;;;0.10;0.10;;;;;;;22.38;100.00;99168.72;7429826;19;20037;-52
2023/08/25 10:48:19;;;;;;;0.10;0.10;;;;;;;22.49;100.00;99173.97;7425115;19;20026;-52
2023/08/25 10:50:45;;;;;;;0.25;0.05;;;;;;;22.52;100.00;99164.28;7426921;19;20033;-52
2023/08/25 10:53:49;;;;;;;0.47;0.10;;;;;;;22.47;100.00;99167.34;7425143;19;20366;-52
2023/08/25 10:56:21;;;;;;;0.10;0.00;;;;;;;22.54;100.00;99175.09;7434562;19;20023;-52
2023/08/25 10:59:04;;;;;;;0.10;0.10;;;;;;;22.63;100.00;99170.91;7428266;19;20024;-52
2023/08/25 11:01:36;;;;;;;1.10;0.25;;;;;;;22.79;100.00;99172.31;7429299;19;20021;-53
2023/08/25 11:04:08;;;;;;;0.20;0.20;;;;;;;22.83;100.00;99166.97;7431155;19;20350;-52
2023/08/25 11:06:39;;;;;;;4.95;0.63;;;;;;;22.84;100.00;99162.81;7426524;19;20013;-53
2023/08/25 11:09:06;;;;;;;0.15;0.08;;;;;;;22.99;100.00;99162.72;7428823;19;20014;-52
2023/08/25 11:11:37;;;;;;;0.65;0.10;;;;;;;23.17;100.00;99158.63;7428454;19;20018;-53
2023/08/25 11:14:04;;;;;;;1.30;0.40;;;;;;;23.16;100.00;99157.09;7426991;19;20014;-52
2023/08/25 11:16:31;;;;;;;1.20;0.32;;;;;;;23.17;100.00;99155.78;7427949;19;20010;-52
2023/08/25 11:18:57;;;;;;;0.47;0.10;;;;;;;23.21;100.00;99156.88;7426537;19;20016;-52
2023/08/25 11:21:27;;;;;;;2.75;0.85;;;;;;;23.19;100.00;99151.03;7432148;19;20029;-52
2023/08/25 11:23:53;;;;;;;1.10;0.47;;;;;;;23.30;100.00;99152.66;7426019;19;20010;-52
2023/08/25 11:26:20;;;;;;;0.10;0.10;;;;;;;23.44;100.00;99142.50;7426245;19;20046;-52
2023/08/25 11:28:50;;;;;;;0.40;0.40;;;;;;;23.50;100.00;99142.28;7428673;19;20006;-52
2023/08/25 11:31:20;;;;;;;4.38;0.20;;;;;;;23.48;100.00;99137.16;7426269;19;20021;-52
2023/08/25 11:33:47;;;;;;;0.60;0.30;;;;;;;23.51;100.00;99141.69;7430805;19;20019;-52
2023/08/25 11:36:15;;;;;;;0.10;0.00;;;;;;;23.53;100.00;99136.16;7430140;19;20010;-52
2023/08/25 11:38:46;;;;;;;3.30;0.57;;;;;;;27.02;94.00;99127.81;7430859;19;20026;-52
2023/08/25 11:41:14;;;;;;;0.43;0.22;;;;;;;33.26;77.13;99122.66;7429882;19;20081;-53
2023/08/25 11:43:40;;;;;;;3.50;0.25;;;;;;;26.31;83.55;99132.63;7431335;19;20368;-53